createdAt,value
2019-03-11T00:00:53.831Z,101678.65
2019-03-11T00:01:54.426Z,101677.64
2019-03-11T00:02:12.032Z,101665.62
2019-03-11T00:03:12.687Z,101665.19
2019-03-11T00:04:14.134Z,101664.78
2019-03-11T00:05:13.712Z,101663.25
2019-03-11T00:06:17.878Z,101663.01
2019-03-11T00:07:14.881Z,101663.19
2019-03-11T00:08:16.803Z,101662.75
2019-03-11T00:09:16.980Z,101662.34
2019-03-11T00:10:17.365Z,101662.00
2019-03-11T00:11:17.453Z,101661.50
2019-03-11T00:12:17.512Z,101660.57
2019-03-11T00:13:18.087Z,101659.08
2019-03-11T00:14:19.073Z,101658.73
2019-03-11T00:15:19.817Z,101656.66
2019-03-11T00:16:20.536Z,101655.58
2019-03-11T00:17:20.772Z,101654.08
2019-03-11T00:18:21.342Z,101653.25
2019-03-11T00:19:22.141Z,101651.66
2019-03-11T00:20:25.052Z,101650.67
2019-03-11T00:21:21.811Z,101649.84
2019-03-11T00:22:23.222Z,101648.61
2019-03-11T00:23:25.604Z,101647.27
2019-03-11T00:24:23.249Z,101646.36
2019-03-11T00:25:26.895Z,101645.76
2019-03-11T00:26:23.976Z,101644.79
2019-03-11T00:27:25.362Z,101644.11
2019-03-11T00:28:25.897Z,101642.80
2019-03-11T00:29:26.785Z,101641.44
2019-03-11T00:30:26.479Z,101640.36
2019-03-11T00:31:27.562Z,101639.27
2019-03-11T00:32:28.280Z,101638.44
2019-03-11T00:33:27.920Z,101637.17
2019-03-11T00:34:29.485Z,101636.17
2019-03-11T00:35:30.092Z,101634.44
2019-03-11T00:36:30.587Z,101633.09
2019-03-11T00:37:31.337Z,101631.84
2019-03-11T00:38:31.418Z,101630.50
2019-03-11T00:39:31.445Z,101629.07
2019-03-11T00:40:31.850Z,101627.90
2019-03-11T00:41:32.277Z,101625.72
2019-03-11T00:42:32.832Z,101624.98
2019-03-11T00:43:33.056Z,101623.80
2019-03-11T00:44:34.000Z,101621.97
2019-03-11T00:45:34.559Z,101620.86
2019-03-11T00:46:35.267Z,101619.59
2019-03-11T00:47:36.179Z,101618.86
2019-03-11T00:48:36.562Z,101617.67
2019-03-11T00:49:36.902Z,101615.99
2019-03-11T00:50:37.483Z,101614.65
2019-03-11T00:51:38.079Z,101613.80
2019-03-11T00:52:38.212Z,101612.72
2019-03-11T00:53:38.054Z,101611.34
2019-03-11T00:53:49.588Z,101606.94
2019-03-11T00:54:50.672Z,101606.35
2019-03-11T00:55:50.806Z,101606.02
2019-03-11T00:56:51.305Z,101605.18
2019-03-11T00:57:52.008Z,101604.25
2019-03-11T00:58:52.245Z,101603.33
2019-03-11T00:59:52.729Z,101603.08
2019-03-11T01:00:53.643Z,101602.17
2019-03-11T01:01:54.610Z,101599.97
2019-03-11T01:02:55.461Z,101597.64
2019-03-11T01:03:55.976Z,101597.54
2019-03-11T01:04:56.331Z,101596.94
2019-03-11T01:05:57.791Z,101596.01
2019-03-11T01:06:57.692Z,101593.84
2019-03-11T01:07:57.909Z,101593.31
2019-03-11T01:08:58.259Z,101593.39
2019-03-11T01:09:58.548Z,101593.31
2019-03-11T01:10:59.281Z,101593.66
2019-03-11T01:11:59.376Z,101592.72
2019-03-11T01:12:59.894Z,101591.62
2019-03-11T01:14:00.300Z,101591.38
2019-03-11T01:15:00.624Z,101591.38
2019-03-11T01:16:01.525Z,101590.63
2019-03-11T01:17:02.085Z,101588.53
2019-03-11T01:18:02.455Z,101587.88
2019-03-11T01:19:01.573Z,101587.81
2019-03-11T01:20:02.785Z,101586.96
2019-03-11T01:21:03.717Z,101585.38
2019-03-11T01:22:03.854Z,101583.88
2019-03-11T01:23:04.054Z,101582.72
2019-03-11T01:24:04.424Z,101581.00
2019-03-11T01:25:05.219Z,101578.39
2019-03-11T01:26:04.189Z,101577.34
2019-03-11T01:27:05.311Z,101575.16
2019-03-11T01:28:05.811Z,101573.10
2019-03-11T01:29:05.978Z,101571.10
2019-03-11T01:30:06.230Z,101569.10
2019-03-11T01:31:06.502Z,101567.25
2019-03-11T01:32:06.720Z,101565.77
2019-03-11T01:33:06.827Z,101564.19
2019-03-11T01:34:06.941Z,101561.69
2019-03-11T01:35:07.189Z,101560.63
2019-03-11T01:36:07.818Z,101559.21
2019-03-11T01:37:08.310Z,101558.38
2019-03-11T01:38:08.580Z,101556.97
2019-03-11T01:38:18.622Z,101547.30
2019-03-11T01:39:20.055Z,101546.55
2019-03-11T01:40:20.108Z,101546.20
2019-03-11T01:41:20.466Z,101544.70
2019-03-11T01:42:20.699Z,101544.37
2019-03-11T01:43:21.030Z,101543.62
2019-03-11T01:44:21.386Z,101543.63
2019-03-11T01:45:21.879Z,101543.02
2019-03-11T01:46:22.221Z,101542.69
2019-03-11T01:47:22.881Z,101542.70
2019-03-11T01:48:23.339Z,101542.63
2019-03-11T01:49:24.121Z,101542.68
2019-03-11T01:50:23.074Z,101543.36
2019-03-11T01:51:24.980Z,101543.36
2019-03-11T01:52:25.051Z,101544.09
2019-03-11T01:53:25.464Z,101545.03
2019-03-11T01:54:25.851Z,101545.87
2019-03-11T01:55:26.455Z,101546.70
2019-03-11T01:56:26.687Z,101547.52
2019-03-11T01:57:27.275Z,101548.78
2019-03-11T01:58:27.341Z,101549.55
2019-03-11T01:59:28.185Z,101550.38
2019-03-11T02:00:28.741Z,101551.38
2019-03-11T02:01:29.077Z,101551.94
2019-03-11T02:02:29.485Z,101553.54
2019-03-11T02:03:30.104Z,101555.30
2019-03-11T02:04:30.639Z,101557.80
2019-03-11T02:05:31.327Z,101559.48
2019-03-11T02:06:31.597Z,101561.05
2019-03-11T02:07:32.375Z,101563.38
2019-03-11T02:08:32.787Z,101565.48
2019-03-11T02:09:33.165Z,101567.16
2019-03-11T02:10:33.188Z,101569.51
2019-03-11T02:11:34.158Z,101572.00
2019-03-11T02:12:35.142Z,101574.09
2019-03-11T02:13:35.759Z,101576.77
2019-03-11T02:14:35.067Z,101579.44
2019-03-11T02:15:36.580Z,101581.38
2019-03-11T02:16:37.500Z,101582.92
2019-03-11T02:17:38.093Z,101585.12
2019-03-11T02:18:38.611Z,101587.55
2019-03-11T02:19:39.563Z,101590.77
2019-03-11T02:20:40.207Z,101594.14
2019-03-11T02:21:40.684Z,101596.94
2019-03-11T02:22:40.677Z,101599.13
2019-03-11T02:23:41.159Z,101599.98
2019-03-11T02:23:49.697Z,101613.30
2019-03-11T02:24:50.984Z,101612.87
2019-03-11T02:25:51.356Z,101614.16
2019-03-11T02:26:51.880Z,101616.55
2019-03-11T02:27:52.371Z,101617.73
2019-03-11T02:28:53.232Z,101617.25
2019-03-11T02:29:53.902Z,101616.29
2019-03-11T02:30:53.402Z,101616.62
2019-03-11T02:31:54.037Z,101618.31
2019-03-11T02:32:55.278Z,101619.41
2019-03-11T02:33:56.232Z,101619.44
2019-03-11T02:34:57.043Z,101617.86
2019-03-11T02:35:57.344Z,101615.64
2019-03-11T02:36:58.062Z,101612.98
2019-03-11T02:37:58.504Z,101610.01
2019-03-11T02:38:58.848Z,101607.93
2019-03-11T02:39:58.672Z,101606.28
2019-03-11T02:41:00.448Z,101604.38
2019-03-11T02:42:01.292Z,101602.70
2019-03-11T02:43:01.558Z,101600.05
2019-03-11T02:44:01.765Z,101597.05
2019-03-11T02:45:01.895Z,101595.72
2019-03-11T02:46:01.833Z,101595.73
2019-03-11T02:47:03.309Z,101595.75
2019-03-11T02:48:03.799Z,101594.39
2019-03-11T02:49:04.649Z,101592.75
2019-03-11T02:50:04.948Z,101589.39
2019-03-11T02:51:05.884Z,101586.98
2019-03-11T02:52:06.536Z,101585.75
2019-03-11T02:53:07.109Z,101584.17
2019-03-11T02:54:07.780Z,101583.24
2019-03-11T02:55:08.779Z,101580.73
2019-03-11T02:56:08.614Z,101577.67
2019-03-11T02:57:10.354Z,101574.66
2019-03-11T02:58:10.693Z,101571.58
2019-03-11T02:59:11.401Z,101568.83
2019-03-11T03:00:12.401Z,101565.84
2019-03-11T03:01:15.013Z,101562.73
2019-03-11T03:02:12.227Z,101559.44
2019-03-11T03:03:13.325Z,101556.59
2019-03-11T03:04:13.382Z,101554.08
2019-03-11T03:05:14.326Z,101551.09
2019-03-11T03:06:14.863Z,101548.83
2019-03-11T03:07:15.028Z,101547.50
2019-03-11T03:08:15.894Z,101546.60
2019-03-11T03:09:16.299Z,101546.09
2019-03-11T03:10:16.825Z,101546.02
2019-03-11T03:11:17.080Z,101546.34
2019-03-11T03:11:27.626Z,101561.41
2019-03-11T03:12:29.112Z,101561.19
2019-03-11T03:13:29.813Z,101561.35
2019-03-11T03:14:30.270Z,101561.42
2019-03-11T03:15:30.396Z,101561.92
2019-03-11T03:16:30.581Z,101562.26
2019-03-11T03:17:31.484Z,101562.59
2019-03-11T03:18:31.787Z,101563.42
2019-03-11T03:19:32.285Z,101564.33
2019-03-11T03:20:31.488Z,101565.02
2019-03-11T03:21:32.671Z,101565.91
2019-03-11T03:22:32.982Z,101567.25
2019-03-11T03:23:33.715Z,101568.27
2019-03-11T03:24:34.625Z,101569.60
2019-03-11T03:25:35.517Z,101570.66
2019-03-11T03:26:35.980Z,101571.25
2019-03-11T03:27:36.478Z,101572.00
2019-03-11T03:28:36.428Z,101572.18
2019-03-11T03:29:36.933Z,101572.33
2019-03-11T03:30:38.481Z,101573.34
2019-03-11T03:31:38.766Z,101574.25
2019-03-11T03:32:39.650Z,101574.82
2019-03-11T03:33:40.097Z,101574.43
2019-03-11T03:34:39.867Z,101574.50
2019-03-11T03:35:40.821Z,101573.94
2019-03-11T03:36:42.060Z,101573.02
2019-03-11T03:37:42.154Z,101572.00
2019-03-11T03:38:43.065Z,101572.00
2019-03-11T03:39:43.892Z,101571.84
2019-03-11T03:40:44.485Z,101571.10
2019-03-11T03:41:44.069Z,101569.83
2019-03-11T03:42:45.260Z,101568.66
2019-03-11T03:43:44.178Z,101567.74
2019-03-11T03:44:46.201Z,101566.69
2019-03-11T03:45:46.964Z,101565.43
2019-03-11T03:46:47.372Z,101564.34
2019-03-11T03:47:47.601Z,101562.77
2019-03-11T03:48:48.687Z,101561.77
2019-03-11T03:49:47.605Z,101560.67
2019-03-11T03:50:48.866Z,101559.34
2019-03-11T03:51:49.278Z,101558.09
2019-03-11T03:52:49.643Z,101557.02
2019-03-11T03:53:50.119Z,101555.91
2019-03-11T03:54:50.203Z,101554.25
2019-03-11T03:55:50.324Z,101553.01
2019-03-11T03:56:53.829Z,101552.09
2019-03-11T03:57:50.911Z,101551.58
2019-03-11T03:58:51.974Z,101552.10
2019-03-11T03:59:52.680Z,101554.42
2019-03-11T04:00:53.188Z,101557.66
2019-03-11T04:01:01.757Z,101620.76
2019-03-11T04:02:03.631Z,101619.84
2019-03-11T04:03:04.196Z,101619.17
2019-03-11T04:04:05.043Z,101619.19
2019-03-11T04:05:05.492Z,101621.09
2019-03-11T04:06:06.047Z,101624.84
2019-03-11T04:07:06.884Z,101627.25
2019-03-11T04:08:07.773Z,101629.35
2019-03-11T04:09:07.172Z,101630.52
2019-03-11T04:10:08.506Z,101633.35
2019-03-11T04:11:08.702Z,101634.77
2019-03-11T04:12:09.492Z,101636.20
2019-03-11T04:13:10.185Z,101637.36
2019-03-11T04:14:10.505Z,101638.34
2019-03-11T04:15:10.971Z,101639.44
2019-03-11T04:16:11.273Z,101639.94
2019-03-11T04:17:11.518Z,101641.00
2019-03-11T04:18:12.108Z,101641.09
2019-03-11T04:19:12.522Z,101640.76
2019-03-11T04:20:11.888Z,101641.02
2019-03-11T04:21:13.087Z,101640.77
2019-03-11T04:22:13.114Z,101640.95
2019-03-11T04:23:13.709Z,101642.28
2019-03-11T04:24:13.954Z,101643.19
2019-03-11T04:25:14.158Z,101643.78
2019-03-11T04:26:14.489Z,101644.70
2019-03-11T04:27:15.043Z,101645.85
2019-03-11T04:28:15.873Z,101646.77
2019-03-11T04:29:16.425Z,101648.03
2019-03-11T04:30:16.749Z,101649.02
2019-03-11T04:31:17.072Z,101651.11
2019-03-11T04:32:17.580Z,101652.33
2019-03-11T04:33:17.979Z,101653.08
2019-03-11T04:34:18.951Z,101654.17
2019-03-11T04:35:19.476Z,101654.42
2019-03-11T04:36:20.076Z,101654.41
2019-03-11T04:37:20.393Z,101653.34
2019-03-11T04:38:21.375Z,101652.48
2019-03-11T04:39:21.592Z,101651.50
2019-03-11T04:40:21.845Z,101650.41
2019-03-11T04:41:22.739Z,101647.75
2019-03-11T04:42:23.042Z,101646.65
2019-03-11T04:43:23.454Z,101647.14
2019-03-11T04:44:24.453Z,101646.81
2019-03-11T04:45:24.435Z,101647.56
2019-03-11T04:45:32.959Z,101653.56
2019-03-11T04:46:34.212Z,101652.14
2019-03-11T04:47:35.119Z,101653.06
2019-03-11T04:48:35.396Z,101654.88
2019-03-11T04:49:35.851Z,101655.64
2019-03-11T04:50:36.728Z,101657.55
2019-03-11T04:51:37.117Z,101660.13
2019-03-11T04:52:37.424Z,101662.05
2019-03-11T04:53:37.594Z,101663.48
2019-03-11T04:54:37.647Z,101665.21
2019-03-11T04:55:38.044Z,101667.97
2019-03-11T04:56:38.433Z,101671.14
2019-03-11T04:57:38.796Z,101673.23
2019-03-11T04:58:39.303Z,101675.45
2019-03-11T04:59:40.285Z,101678.05
2019-03-11T05:00:40.986Z,101679.95
2019-03-11T05:01:41.133Z,101682.04
2019-03-11T05:02:41.653Z,101684.20
2019-03-11T05:03:42.321Z,101684.28
2019-03-11T05:04:42.368Z,101685.56
2019-03-11T05:05:42.341Z,101686.79
2019-03-11T05:06:42.752Z,101688.52
2019-03-11T05:07:43.109Z,101689.77
2019-03-11T05:08:43.666Z,101690.93
2019-03-11T05:09:44.443Z,101691.36
2019-03-11T05:10:45.347Z,101691.34
2019-03-11T05:11:46.316Z,101691.07
2019-03-11T05:12:46.429Z,101690.33
2019-03-11T05:13:46.622Z,101689.47
2019-03-11T05:14:46.887Z,101689.30
2019-03-11T05:15:47.097Z,101688.20
2019-03-11T05:16:47.537Z,101687.78
2019-03-11T05:17:48.820Z,101686.61
2019-03-11T05:18:47.867Z,101685.45
2019-03-11T05:19:49.243Z,101683.42
2019-03-11T05:20:49.671Z,101682.23
2019-03-11T05:21:50.083Z,101681.09
2019-03-11T05:22:50.631Z,101679.48
2019-03-11T05:23:51.229Z,101678.16
2019-03-11T05:24:52.046Z,101676.06
2019-03-11T05:25:52.346Z,101674.48
2019-03-11T05:26:52.802Z,101672.98
2019-03-11T05:27:53.394Z,101670.64
2019-03-11T05:28:53.977Z,101668.97
2019-03-11T05:29:54.365Z,101666.55
2019-03-11T05:30:02.894Z,101639.69
2019-03-11T05:31:03.960Z,101639.09
2019-03-11T05:32:04.431Z,101639.27
2019-03-11T05:33:05.237Z,101638.93
2019-03-11T05:34:05.797Z,101639.28
2019-03-11T05:35:06.234Z,101639.60
2019-03-11T05:36:06.926Z,101639.27
2019-03-11T05:37:07.763Z,101639.45
2019-03-11T05:38:08.754Z,101640.37
2019-03-11T05:39:08.987Z,101641.11
2019-03-11T05:40:09.892Z,101641.86
2019-03-11T05:41:10.220Z,101642.04
2019-03-11T05:42:10.730Z,101642.11
2019-03-11T05:43:10.842Z,101642.28
2019-03-11T05:44:11.732Z,101641.92
2019-03-11T05:45:11.859Z,101641.94
2019-03-11T05:46:12.447Z,101642.12
2019-03-11T05:47:12.898Z,101641.94
2019-03-11T05:48:13.227Z,101642.11
2019-03-11T05:49:13.683Z,101642.19
2019-03-11T05:50:14.177Z,101642.19
2019-03-11T05:51:14.567Z,101642.28
2019-03-11T05:52:14.868Z,101642.00
2019-03-11T05:53:15.165Z,101642.28
2019-03-11T05:54:16.004Z,101641.94
2019-03-11T05:55:16.505Z,101642.95
2019-03-11T05:56:17.251Z,101643.37
2019-03-11T05:57:18.229Z,101644.03
2019-03-11T05:58:17.942Z,101644.05
2019-03-11T05:59:19.628Z,101644.55
2019-03-11T06:00:19.632Z,101644.56
2019-03-11T06:01:19.815Z,101644.89
2019-03-11T06:02:19.863Z,101644.96
2019-03-11T06:03:20.304Z,101644.14
2019-03-11T06:04:20.684Z,101644.14
2019-03-11T06:05:21.064Z,101643.22
2019-03-11T06:06:21.672Z,101643.33
2019-03-11T06:07:21.935Z,101641.73
2019-03-11T06:08:22.589Z,101641.41
2019-03-11T06:09:23.036Z,101640.84
2019-03-11T06:10:23.443Z,101640.77
2019-03-11T06:11:24.344Z,101640.52
2019-03-11T06:12:24.358Z,101640.27
2019-03-11T06:13:35.254Z,101640.52
2019-03-11T06:14:24.739Z,101640.62
2019-03-11T06:14:33.306Z,101646.17
2019-03-11T06:15:34.289Z,101646.51
2019-03-11T06:16:34.871Z,101646.17
2019-03-11T06:17:35.653Z,101645.67
2019-03-11T06:18:34.732Z,101646.10
2019-03-11T06:19:36.348Z,101645.51
2019-03-11T06:20:37.010Z,101645.60
2019-03-11T06:21:37.918Z,101646.20
2019-03-11T06:22:38.695Z,101646.67
2019-03-11T06:23:39.120Z,101647.03
2019-03-11T06:24:40.042Z,101647.45
2019-03-11T06:25:40.410Z,101647.69
2019-03-11T06:26:40.767Z,101648.86
2019-03-11T06:27:40.861Z,101649.61
2019-03-11T06:28:41.011Z,101649.94
2019-03-11T06:29:41.787Z,101651.28
2019-03-11T06:30:42.135Z,101651.62
2019-03-11T06:31:42.540Z,101652.38
2019-03-11T06:32:43.464Z,101653.13
2019-03-11T06:33:43.844Z,101653.79
2019-03-11T06:34:44.098Z,101653.96
2019-03-11T06:35:44.189Z,101654.16
2019-03-11T06:36:44.724Z,101654.14
2019-03-11T06:37:44.967Z,101653.81
2019-03-11T06:38:45.764Z,101655.14
2019-03-11T06:39:46.510Z,101655.56
2019-03-11T06:40:46.685Z,101655.89
2019-03-11T06:41:47.360Z,101656.48
2019-03-11T06:42:47.701Z,101657.31
2019-03-11T06:43:47.949Z,101657.33
2019-03-11T06:44:48.162Z,101657.48
2019-03-11T06:45:48.916Z,101658.08
2019-03-11T06:46:49.726Z,101658.59
2019-03-11T06:47:50.225Z,101658.92
2019-03-11T06:48:50.810Z,101659.58
2019-03-11T06:49:50.369Z,101659.93
2019-03-11T06:50:51.461Z,101659.86
2019-03-11T06:51:52.194Z,101660.33
2019-03-11T06:52:52.623Z,101660.28
2019-03-11T06:53:52.855Z,101661.28
2019-03-11T06:54:53.221Z,101662.51
2019-03-11T06:55:53.747Z,101663.09
2019-03-11T06:56:54.106Z,101664.03
2019-03-11T06:57:02.676Z,101674.94
2019-03-11T06:58:03.850Z,101674.88
2019-03-11T06:59:03.901Z,101675.22
2019-03-11T07:00:04.614Z,101675.38
2019-03-11T07:01:05.087Z,101675.94
2019-03-11T07:02:04.667Z,101676.22
2019-03-11T07:03:06.601Z,101677.28
2019-03-11T07:04:07.225Z,101677.78
2019-03-11T07:05:18.758Z,101678.55
2019-03-11T07:06:06.728Z,101679.55
2019-03-11T07:07:07.995Z,101679.88
2019-03-11T07:08:08.364Z,101680.80
2019-03-11T07:09:08.743Z,101681.77
2019-03-11T07:10:09.084Z,101682.45
2019-03-11T07:11:09.636Z,101682.64
2019-03-11T07:12:10.251Z,101683.80
2019-03-11T07:13:10.973Z,101684.80
2019-03-11T07:14:11.524Z,101685.64
2019-03-11T07:15:11.818Z,101686.30
2019-03-11T07:16:12.153Z,101686.86
2019-03-11T07:17:12.957Z,101686.88
2019-03-11T07:18:13.349Z,101687.37
2019-03-11T07:19:13.662Z,101687.97
2019-03-11T07:20:14.615Z,101688.13
2019-03-11T07:21:15.517Z,101689.29
2019-03-11T07:22:15.627Z,101689.53
2019-03-11T07:23:15.682Z,101690.47
2019-03-11T07:24:16.198Z,101691.23
2019-03-11T07:25:16.540Z,101692.14
2019-03-11T07:26:16.750Z,101693.22
2019-03-11T07:27:17.271Z,101694.06
2019-03-11T07:28:17.858Z,101694.97
2019-03-11T07:29:18.551Z,101695.30
2019-03-11T07:30:19.030Z,101695.91
2019-03-11T07:31:19.464Z,101696.64
2019-03-11T07:32:20.015Z,101697.83
2019-03-11T07:33:20.494Z,101698.22
2019-03-11T07:34:20.632Z,101699.08
2019-03-11T07:35:21.107Z,101699.98
2019-03-11T07:36:21.617Z,101701.73
2019-03-11T07:37:22.479Z,101702.42
2019-03-11T07:38:22.215Z,101703.41
2019-03-11T07:39:23.055Z,101704.25
2019-03-11T07:40:29.737Z,101704.73
2019-03-11T07:41:24.030Z,101705.16
2019-03-11T07:42:24.553Z,101705.66
2019-03-11T07:43:25.097Z,101705.90
2019-03-11T07:44:25.633Z,101705.89
2019-03-11T07:45:26.038Z,101706.83
2019-03-11T07:46:27.005Z,101707.65
2019-03-11T07:48:54.392Z,101730.15
2019-03-11T07:49:55.073Z,101729.42
2019-03-11T07:50:55.141Z,101729.07
2019-03-11T07:51:55.172Z,101729.24
2019-03-11T07:52:55.514Z,101728.73
2019-03-11T07:53:55.896Z,101728.66
2019-03-11T07:54:55.782Z,101728.42
2019-03-11T07:55:56.314Z,101728.81
2019-03-11T07:56:56.391Z,101728.91
2019-03-11T07:57:56.330Z,101729.00
2019-03-11T07:58:56.349Z,101729.25
2019-03-11T07:59:58.300Z,101729.09
2019-03-11T08:00:57.439Z,101729.81
2019-03-11T08:01:57.314Z,101730.66
2019-03-11T08:02:58.246Z,101729.50
2019-03-11T08:03:58.796Z,101730.76
2019-03-11T08:04:58.999Z,101731.31
2019-03-11T08:05:58.992Z,101731.98
2019-03-11T08:06:58.994Z,101733.16
2019-03-11T08:07:59.341Z,101734.25
2019-03-11T08:08:59.921Z,101734.92
2019-03-11T08:10:00.009Z,101736.18
2019-03-11T08:11:00.628Z,101738.00
2019-03-11T08:12:00.885Z,101739.08
2019-03-11T08:13:01.727Z,101740.42
2019-03-11T08:14:01.749Z,101741.75
2019-03-11T08:15:01.938Z,101743.76
2019-03-11T08:16:02.082Z,101745.20
2019-03-11T08:17:03.027Z,101747.36
2019-03-11T08:18:03.659Z,101749.48
2019-03-11T08:19:04.054Z,101752.05
2019-03-11T08:20:04.179Z,101754.05
2019-03-11T08:21:04.182Z,101756.05
2019-03-11T08:22:04.427Z,101757.50
2019-03-11T08:23:04.520Z,101758.74
2019-03-11T08:24:04.818Z,101760.48
2019-03-11T08:25:05.349Z,101762.34
2019-03-11T08:26:05.783Z,101764.52
2019-03-11T08:27:06.727Z,101766.17
2019-03-11T08:28:06.852Z,101768.34
2019-03-11T08:29:06.943Z,101769.20
2019-03-11T08:30:07.288Z,101770.45
2019-03-11T08:31:07.662Z,101772.13
2019-03-11T08:32:08.557Z,101773.29
2019-03-11T08:33:08.830Z,101774.73
2019-03-11T08:34:09.107Z,101775.72
2019-03-11T08:35:11.945Z,101777.48
2019-03-11T08:36:10.242Z,101778.91
2019-03-11T08:37:10.250Z,101779.78
2019-03-11T08:38:11.203Z,101781.12
2019-03-11T08:39:11.688Z,101781.77
2019-03-11T08:40:11.989Z,101782.95
2019-03-11T08:41:12.151Z,101783.80
2019-03-11T08:42:12.499Z,101784.72
2019-03-11T08:43:13.007Z,101785.56
2019-03-11T08:44:13.922Z,101785.97
2019-03-11T08:45:14.099Z,101786.25
2019-03-11T08:46:14.656Z,101786.48
2019-03-11T08:47:15.072Z,101787.33
2019-03-11T08:48:15.046Z,101788.00
2019-03-11T08:49:15.267Z,101788.58
2019-03-11T08:50:15.368Z,101789.24
2019-03-11T08:51:16.981Z,101789.76
2019-03-11T08:52:17.524Z,101790.33
2019-03-11T08:53:18.133Z,101790.77
2019-03-11T08:54:18.216Z,101791.51
2019-03-11T08:55:19.085Z,101791.34
2019-03-11T08:56:20.038Z,101793.02
2019-03-11T08:57:20.755Z,101794.41
2019-03-11T08:58:21.545Z,101795.00
2019-03-11T08:59:22.524Z,101795.59
2019-03-11T09:00:23.338Z,101795.81
2019-03-11T09:01:23.870Z,101796.41
2019-03-11T09:02:34.555Z,101797.23
2019-03-11T09:03:24.420Z,101796.83
2019-03-11T09:04:26.209Z,101797.33
2019-03-11T09:05:27.044Z,101797.89
2019-03-11T09:06:27.741Z,101798.48
2019-03-11T09:07:28.551Z,101798.86
2019-03-11T09:08:29.402Z,101799.52
2019-03-11T09:09:31.615Z,101800.27
2019-03-11T09:10:29.409Z,101800.91
2019-03-11T09:11:31.129Z,101801.82
2019-03-11T09:12:31.971Z,101803.45
2019-03-11T09:13:32.640Z,101804.28
2019-03-11T09:14:33.555Z,101805.02
2019-03-11T09:15:33.677Z,101805.86
2019-03-11T09:16:33.867Z,101807.00
2019-03-11T09:17:34.815Z,101808.00
2019-03-11T09:18:33.802Z,101808.48
2019-03-11T09:19:36.745Z,101809.40
2019-03-11T09:20:34.789Z,101809.71
2019-03-11T09:20:46.857Z,101819.90
2019-03-11T09:21:48.457Z,101819.14
2019-03-11T09:22:49.240Z,101818.98
2019-03-11T09:23:49.347Z,101818.89
2019-03-11T09:24:50.146Z,101818.90
2019-03-11T09:25:50.303Z,101818.93
2019-03-11T09:26:51.001Z,101819.84
2019-03-11T09:27:51.677Z,101821.05
2019-03-11T09:28:52.571Z,101821.31
2019-03-11T09:29:53.323Z,101821.91
2019-03-11T09:30:53.406Z,101822.68
2019-03-11T09:31:54.290Z,101824.05
2019-03-11T09:32:54.252Z,101824.34
2019-03-11T09:33:54.201Z,101825.52
2019-03-11T09:34:54.500Z,101825.96
2019-03-11T09:35:56.466Z,101827.05
2019-03-11T09:36:57.321Z,101827.73
2019-03-11T09:37:58.159Z,101828.66
2019-03-11T09:38:58.023Z,101829.42
2019-03-11T09:40:00.566Z,101829.69
2019-03-11T09:40:58.574Z,101830.61
2019-03-11T09:41:59.477Z,101831.29
2019-03-11T09:43:00.036Z,101831.97
2019-03-11T09:44:00.885Z,101832.46
2019-03-11T09:45:01.914Z,101833.47
2019-03-11T09:46:02.648Z,101834.73
2019-03-11T09:47:02.826Z,101837.09
2019-03-11T09:48:03.575Z,101838.09
2019-03-11T09:49:04.595Z,101839.70
2019-03-11T09:50:05.633Z,101840.52
2019-03-11T09:51:05.682Z,101841.63
2019-03-11T09:52:06.462Z,101842.47
2019-03-11T09:53:06.765Z,101843.23
2019-03-11T09:54:06.905Z,101844.98
2019-03-11T09:55:08.687Z,101846.73
2019-03-11T09:56:09.817Z,101847.97
2019-03-11T09:57:09.124Z,101849.57
2019-03-11T09:58:09.847Z,101851.41
2019-03-11T09:59:10.540Z,101852.84
2019-03-11T10:00:11.540Z,101854.10
2019-03-11T10:01:12.582Z,101855.25
2019-03-11T10:02:13.031Z,101856.52
2019-03-11T10:03:13.153Z,101857.45
2019-03-11T10:04:13.328Z,101858.52
2019-03-11T10:05:13.456Z,101859.53
2019-03-11T10:06:13.687Z,101861.18
2019-03-11T10:07:14.708Z,101862.20
2019-03-11T10:08:15.633Z,101862.35
2019-03-11T10:09:16.399Z,101863.84
2019-03-11T10:10:17.400Z,101864.42
2019-03-11T10:11:18.232Z,101864.75
2019-03-11T10:12:18.163Z,101865.02
2019-03-11T10:13:18.875Z,101865.36
2019-03-11T10:14:20.547Z,101864.81
2019-03-11T10:15:21.490Z,101866.16
2019-03-11T10:16:20.826Z,101866.99
2019-03-11T10:17:21.403Z,101867.43
2019-03-11T10:18:22.371Z,101868.56
2019-03-11T10:19:22.969Z,101870.07
2019-03-11T10:20:23.483Z,101871.02
2019-03-11T10:21:23.817Z,101872.52
2019-03-11T10:22:24.613Z,101873.32
2019-03-11T10:23:32.117Z,101874.83
2019-03-11T10:24:26.411Z,101876.25
2019-03-11T10:25:26.484Z,101876.91
2019-03-11T10:26:27.533Z,101878.24
2019-03-11T10:27:28.435Z,101879.31
2019-03-11T10:28:28.447Z,101880.23
2019-03-11T10:29:28.687Z,101881.27
2019-03-11T10:30:28.928Z,101882.31
2019-03-11T10:31:29.624Z,101883.87
2019-03-11T10:32:31.435Z,101884.66
2019-03-11T10:33:32.181Z,101885.81
2019-03-11T10:34:32.279Z,101886.44
2019-03-11T10:35:33.073Z,101887.41
2019-03-11T10:36:34.021Z,101888.78
2019-03-11T10:37:34.182Z,101890.27
2019-03-11T10:38:34.181Z,101890.84
2019-03-11T10:39:34.620Z,101892.63
2019-03-11T10:40:35.349Z,101894.37
2019-03-11T10:41:35.922Z,101895.05
2019-03-11T10:42:36.886Z,101896.70
2019-03-11T10:43:36.768Z,101898.11
2019-03-11T10:44:37.547Z,101900.20
2019-03-11T10:45:37.582Z,101901.43
2019-03-11T10:46:38.216Z,101902.61
2019-03-11T10:47:39.237Z,101903.89
2019-03-11T10:48:39.998Z,101904.73
2019-03-11T10:49:40.423Z,101906.23
2019-03-11T10:50:41.205Z,101908.23
2019-03-11T10:51:41.961Z,101909.34
2019-03-11T10:52:43.909Z,101910.67
2019-03-11T10:53:44.214Z,101911.92
2019-03-11T10:54:44.001Z,101913.03
2019-03-11T10:55:44.249Z,101914.55
2019-03-11T10:56:45.206Z,101915.28
2019-03-11T10:56:54.409Z,101926.16
2019-03-11T10:57:54.609Z,101925.73
2019-03-11T10:58:55.155Z,101926.50
2019-03-11T10:59:55.650Z,101927.33
2019-03-11T11:00:56.386Z,101927.83
2019-03-11T11:01:57.205Z,101928.59
2019-03-11T11:02:57.816Z,101929.44
2019-03-11T11:03:58.641Z,101930.27
2019-03-11T11:04:59.517Z,101930.09
2019-03-11T11:06:00.245Z,101930.68
2019-03-11T11:07:01.048Z,101930.34
2019-03-11T11:08:01.826Z,101931.00
2019-03-11T11:09:03.068Z,101931.42
2019-03-11T11:10:03.411Z,101932.45
2019-03-11T11:11:03.793Z,101933.02
2019-03-11T11:12:04.695Z,101933.50
2019-03-11T11:13:05.332Z,101934.19
2019-03-11T11:14:06.238Z,101934.77
2019-03-11T11:15:06.774Z,101936.10
2019-03-11T11:16:08.415Z,101936.34
2019-03-11T11:17:09.186Z,101937.17
2019-03-11T11:18:09.286Z,101937.17
2019-03-11T11:19:09.541Z,101938.52
2019-03-11T11:20:10.385Z,101940.17
2019-03-11T11:21:10.148Z,101941.27
2019-03-11T11:22:10.468Z,101942.36